createdAt,value
2024-04-14T00:00:07.977Z,0.00
2024-04-14T00:00:59.330Z,0.00
2024-04-14T00:01:49.978Z,0.00
2024-04-14T00:02:41.251Z,0.00
2024-04-14T00:03:32.567Z,0.00
2024-04-14T00:04:23.497Z,0.00
2024-04-14T00:05:14.376Z,0.00
2024-04-14T00:06:05.098Z,0.00
2024-04-14T00:06:56.359Z,0.00
2024-04-14T00:07:47.544Z,0.00
2024-04-14T00:08:38.794Z,0.00
2024-04-14T00:09:29.573Z,0.00
2024-04-14T00:10:20.270Z,0.00
2024-04-14T00:11:11.449Z,0.00
2024-04-14T00:12:02.605Z,0.00
2024-04-14T00:12:53.764Z,0.00
2024-04-14T00:13:44.788Z,0.00
2024-04-14T00:14:35.632Z,0.00
2024-04-14T00:15:26.953Z,0.00
2024-04-14T00:16:17.714Z,0.00
2024-04-14T00:17:08.839Z,0.00
2024-04-14T00:17:59.758Z,0.00
2024-04-14T00:18:51.715Z,0.00
2024-04-14T00:19:41.649Z,0.00
2024-04-14T00:20:32.851Z,0.00
2024-04-14T00:21:24.123Z,0.00
2024-04-14T00:22:15.093Z,0.00
2024-04-14T00:23:05.986Z,0.00
2024-04-14T00:23:57.270Z,0.00
2024-04-14T00:24:47.978Z,0.00
2024-04-14T00:25:38.624Z,0.00
2024-04-14T00:26:29.341Z,0.00
2024-04-14T00:27:20.200Z,0.00
2024-04-14T00:28:11.281Z,0.00
2024-04-14T00:29:02.161Z,0.00
2024-04-14T00:29:53.374Z,0.00
2024-04-14T00:30:44.514Z,0.00
2024-04-14T00:31:35.218Z,0.00
2024-04-14T00:32:26.546Z,0.00
2024-04-14T00:33:17.476Z,0.00
2024-04-14T00:34:08.359Z,0.00
2024-04-14T00:34:59.575Z,0.00
2024-04-14T00:35:50.623Z,0.00
2024-04-14T00:36:41.302Z,0.00
2024-04-14T00:37:32.338Z,0.00
2024-04-14T00:38:23.427Z,0.00
2024-04-14T00:39:14.594Z,0.00
2024-04-14T00:40:05.526Z,0.00
2024-04-14T00:40:56.571Z,0.00
2024-04-14T00:41:47.746Z,0.00
2024-04-14T00:42:38.505Z,0.00
2024-04-14T00:43:29.584Z,0.00
2024-04-14T00:44:20.720Z,0.00
2024-04-14T00:45:11.625Z,0.00
2024-04-14T00:46:02.616Z,0.00
2024-04-14T00:46:53.598Z,0.00
2024-04-14T00:47:44.635Z,0.00
2024-04-14T00:48:35.543Z,0.00
2024-04-14T00:49:26.736Z,0.00
2024-04-14T00:50:17.785Z,0.00
2024-04-14T00:51:08.897Z,0.00
2024-04-14T00:51:59.670Z,0.00
2024-04-14T00:52:50.818Z,0.00
2024-04-14T00:53:41.835Z,0.00
2024-04-14T00:54:32.706Z,0.00
2024-04-14T00:55:23.632Z,0.00
2024-04-14T00:56:14.909Z,0.00
2024-04-14T00:57:05.650Z,0.00
2024-04-14T00:57:56.927Z,0.00
2024-04-14T00:58:48.172Z,0.00
2024-04-14T00:59:39.442Z,0.00
2024-04-14T01:00:30.519Z,0.00
2024-04-14T01:01:21.976Z,0.00
2024-04-14T01:02:12.295Z,0.00
2024-04-14T01:03:03.504Z,0.00
2024-04-14T01:03:54.625Z,0.00
2024-04-14T01:04:45.715Z,0.00
2024-04-14T01:05:36.811Z,0.00
2024-04-14T01:06:27.945Z,0.00
2024-04-14T01:07:18.910Z,0.00
2024-04-14T01:08:09.892Z,0.00
2024-04-14T01:09:00.927Z,0.00
2024-04-14T01:09:52.196Z,0.00
2024-04-14T01:10:42.701Z,0.00
2024-04-14T01:11:33.715Z,0.00
2024-04-14T01:12:25.033Z,0.00
2024-04-14T01:13:16.040Z,0.00
2024-04-14T01:14:07.092Z,0.00
2024-04-14T01:14:58.090Z,0.00
2024-04-14T01:15:49.220Z,0.00
2024-04-14T01:16:40.358Z,0.00
2024-04-14T01:17:31.282Z,0.00
2024-04-14T01:18:22.297Z,0.00
2024-04-14T01:19:13.020Z,0.00
2024-04-14T01:20:03.784Z,0.00
2024-04-14T01:20:54.572Z,0.00
2024-04-14T01:21:45.225Z,0.00
2024-04-14T01:22:36.463Z,0.00
2024-04-14T01:23:27.750Z,0.00
2024-04-14T01:24:18.956Z,0.00
2024-04-14T01:25:10.193Z,0.00
2024-04-14T01:26:01.161Z,0.00
2024-04-14T01:26:52.154Z,0.00
2024-04-14T01:27:42.833Z,0.00
2024-04-14T01:28:33.981Z,0.00
2024-04-14T01:29:24.847Z,0.00
2024-04-14T01:30:16.148Z,0.00
2024-04-14T01:31:07.132Z,0.00
2024-04-14T01:31:57.999Z,0.00
2024-04-14T01:32:48.821Z,0.00
2024-04-14T01:33:39.888Z,0.00
2024-04-14T01:34:30.974Z,0.00
2024-04-14T01:35:22.164Z,0.00
2024-04-14T01:36:13.206Z,0.00
2024-04-14T01:37:03.882Z,0.00
2024-04-14T01:38:01.778Z,0.00
2024-04-14T01:38:46.378Z,0.00
2024-04-14T01:39:36.339Z,0.00
2024-04-14T01:40:26.994Z,0.00
2024-04-14T01:41:18.266Z,0.00
2024-04-14T01:42:08.989Z,0.00
2024-04-14T01:43:00.250Z,0.00
2024-04-14T01:43:51.060Z,0.00
2024-04-14T01:44:42.146Z,0.00
2024-04-14T01:45:32.830Z,0.00
2024-04-14T01:46:23.860Z,0.00
2024-04-14T01:47:14.745Z,0.00
2024-04-14T01:48:05.715Z,0.00
2024-04-14T01:48:56.911Z,0.00
2024-04-14T01:49:48.026Z,0.00
2024-04-14T01:50:38.759Z,0.00
2024-04-14T01:51:29.718Z,0.00
2024-04-14T01:52:20.756Z,0.00
2024-04-14T01:53:11.743Z,0.00
2024-04-14T01:54:02.962Z,0.00
2024-04-14T01:54:54.274Z,0.00
2024-04-14T01:55:45.316Z,0.00
2024-04-14T01:56:36.511Z,0.00
2024-04-14T01:57:27.594Z,0.00
2024-04-14T01:58:18.419Z,0.00
2024-04-14T01:59:09.654Z,0.00
2024-04-14T02:00:00.687Z,0.00
2024-04-14T02:00:51.968Z,0.00
2024-04-14T02:01:42.623Z,0.00
2024-04-14T02:02:33.818Z,0.00
2024-04-14T02:03:25.235Z,0.00
2024-04-14T02:04:16.503Z,0.00
2024-04-14T02:05:07.247Z,0.00
2024-04-14T02:05:57.931Z,0.00
2024-04-14T02:06:48.676Z,0.00
2024-04-14T02:07:39.752Z,0.00
2024-04-14T02:08:31.115Z,0.00
2024-04-14T02:09:21.713Z,0.00
2024-04-14T02:10:12.609Z,0.00
2024-04-14T02:11:03.326Z,0.00
2024-04-14T02:11:53.954Z,0.00
2024-04-14T02:12:45.110Z,0.00
2024-04-14T02:13:35.894Z,0.00
2024-04-14T02:14:26.989Z,0.00
2024-04-14T02:15:18.192Z,0.00
2024-04-14T02:16:09.100Z,0.00
2024-04-14T02:16:59.957Z,0.00
2024-04-14T02:17:50.982Z,0.00
2024-04-14T02:18:41.729Z,0.00
2024-04-14T02:19:32.606Z,0.00
2024-04-14T02:20:23.313Z,0.00
2024-04-14T02:21:14.181Z,0.00
2024-04-14T02:22:05.336Z,0.00
2024-04-14T02:22:56.054Z,0.00
2024-04-14T02:23:47.366Z,0.00
2024-04-14T02:24:38.206Z,0.00
2024-04-14T02:25:28.929Z,0.00
2024-04-14T02:26:20.130Z,0.00
2024-04-14T02:27:11.325Z,0.00
2024-04-14T02:28:02.668Z,0.00
2024-04-14T02:28:53.850Z,0.00
2024-04-14T02:29:44.539Z,0.00
2024-04-14T02:30:35.263Z,0.00
2024-04-14T02:31:26.360Z,0.00
2024-04-14T02:32:17.643Z,0.00
2024-04-14T02:33:08.295Z,0.00
2024-04-14T02:33:59.501Z,0.00
2024-04-14T02:34:50.370Z,0.00
2024-04-14T02:35:41.501Z,0.00
2024-04-14T02:36:32.521Z,0.00
2024-04-14T02:37:23.384Z,0.00
2024-04-14T02:38:14.311Z,0.00
2024-04-14T02:39:05.407Z,0.00
2024-04-14T02:39:56.169Z,0.00
2024-04-14T02:40:47.245Z,0.00
2024-04-14T02:41:38.242Z,0.00
2024-04-14T02:42:29.332Z,0.00
2024-04-14T02:43:20.034Z,0.00
2024-04-14T02:44:11.039Z,0.00
2024-04-14T02:45:02.172Z,0.00
2024-04-14T02:45:53.448Z,0.00
2024-04-14T02:46:44.334Z,0.00
2024-04-14T02:47:35.344Z,0.00
2024-04-14T02:48:26.396Z,0.00
2024-04-14T02:49:17.560Z,0.00
2024-04-14T02:50:08.691Z,0.00
2024-04-14T02:50:59.829Z,0.00
2024-04-14T02:51:50.526Z,0.00
2024-04-14T02:52:41.463Z,0.00
2024-04-14T02:53:32.587Z,0.00
2024-04-14T02:54:23.645Z,0.00
2024-04-14T02:55:14.531Z,0.00
2024-04-14T02:56:05.230Z,0.00
2024-04-14T02:56:56.419Z,0.00
2024-04-14T02:57:47.744Z,0.00
2024-04-14T02:58:38.686Z,0.00
2024-04-14T02:59:29.750Z,0.00
2024-04-14T03:00:20.478Z,0.00
2024-04-14T03:01:11.853Z,0.00
2024-04-14T03:02:02.846Z,0.00
2024-04-14T03:02:53.552Z,0.00
2024-04-14T03:03:44.760Z,0.00
2024-04-14T03:04:35.430Z,0.00
2024-04-14T03:05:26.035Z,0.00
2024-04-14T03:06:17.103Z,0.00
2024-04-14T03:07:07.844Z,0.00
2024-04-14T03:07:58.521Z,0.00
2024-04-14T03:08:49.202Z,0.00
2024-04-14T03:09:40.473Z,0.00
2024-04-14T03:10:31.122Z,0.00
2024-04-14T03:11:22.456Z,0.00
2024-04-14T03:12:13.600Z,0.00
2024-04-14T03:13:04.443Z,0.00
2024-04-14T03:13:55.206Z,0.00
2024-04-14T03:14:45.934Z,0.00
2024-04-14T03:15:36.669Z,0.00
2024-04-14T03:16:27.833Z,0.00
2024-04-14T03:17:18.982Z,0.00
2024-04-14T03:18:10.120Z,0.00
2024-04-14T03:19:01.290Z,0.00
2024-04-14T03:19:52.230Z,0.00
2024-04-14T03:20:42.943Z,0.00
2024-04-14T03:21:33.876Z,0.00
2024-04-14T03:22:25.044Z,0.00
2024-04-14T03:23:15.960Z,0.00
2024-04-14T03:24:07.173Z,0.00
2024-04-14T03:24:58.010Z,0.00
2024-04-14T03:25:48.745Z,0.00
2024-04-14T03:26:39.440Z,0.00
2024-04-14T03:27:30.711Z,0.00
2024-04-14T03:28:21.683Z,0.00
2024-04-14T03:29:12.500Z,0.00
2024-04-14T03:30:03.433Z,0.00
2024-04-14T03:30:54.577Z,0.00
2024-04-14T03:31:45.808Z,0.00
2024-04-14T03:32:36.678Z,0.00
2024-04-14T03:33:27.599Z,0.00
2024-04-14T03:34:18.849Z,0.00
2024-04-14T03:35:09.636Z,0.00
2024-04-14T03:36:00.406Z,0.00
2024-04-14T03:36:51.205Z,0.00
2024-04-14T03:37:41.959Z,0.00
2024-04-14T03:38:32.729Z,0.00
2024-04-14T03:39:23.541Z,0.00
2024-04-14T03:40:14.362Z,0.00
2024-04-14T03:41:05.172Z,0.00
2024-04-14T03:41:55.905Z,0.00
2024-04-14T03:42:46.720Z,0.00
2024-04-14T03:43:37.443Z,0.00
2024-04-14T03:44:28.230Z,0.00
2024-04-14T03:45:18.985Z,0.00
2024-04-14T03:46:09.767Z,0.00
2024-04-14T03:47:00.530Z,0.00
2024-04-14T03:47:51.344Z,0.00
2024-04-14T03:48:42.473Z,0.00
2024-04-14T03:49:33.353Z,0.00
2024-04-14T03:50:24.239Z,0.00
2024-04-14T03:51:15.115Z,0.00
2024-04-14T03:52:06.011Z,0.00
2024-04-14T03:52:56.863Z,0.00
2024-04-14T03:53:47.739Z,0.00
2024-04-14T03:54:38.626Z,0.00
2024-04-14T03:55:29.870Z,0.00
2024-04-14T03:56:20.658Z,0.00
2024-04-14T03:57:11.449Z,0.00
2024-04-14T03:58:02.365Z,0.00
2024-04-14T03:58:53.221Z,0.00
2024-04-14T03:59:44.074Z,0.00
2024-04-14T04:00:35.010Z,0.00
2024-04-14T04:01:26.186Z,0.00
2024-04-14T04:02:17.207Z,0.00
2024-04-14T04:03:08.040Z,0.00
2024-04-14T04:03:58.962Z,0.00
2024-04-14T04:04:49.892Z,0.00
2024-04-14T04:05:40.763Z,0.00
2024-04-14T04:06:31.671Z,0.00
2024-04-14T04:07:22.517Z,0.00
2024-04-14T04:08:13.398Z,0.00
2024-04-14T04:09:04.403Z,0.00
2024-04-14T04:09:55.295Z,0.00
2024-04-14T04:10:46.170Z,0.00
2024-04-14T04:11:37.081Z,0.00
2024-04-14T04:12:27.978Z,0.00
2024-04-14T04:13:18.838Z,0.00
2024-04-14T04:14:09.729Z,0.00
2024-04-14T04:15:00.618Z,0.00
2024-04-14T04:15:51.537Z,0.00
2024-04-14T04:16:45.613Z,0.00
2024-04-14T04:17:33.476Z,0.00
2024-04-14T04:18:24.462Z,0.00
2024-04-14T04:19:21.834Z,0.00
2024-04-14T04:20:07.345Z,0.00
2024-04-14T04:20:56.969Z,0.00
2024-04-14T04:21:47.881Z,0.00
2024-04-14T04:22:38.751Z,0.00
2024-04-14T04:23:29.646Z,0.00
2024-04-14T04:24:23.598Z,0.00
2024-04-14T04:25:11.577Z,0.00
2024-04-14T04:26:02.478Z,0.00
2024-04-14T04:26:53.358Z,0.00
2024-04-14T04:27:44.310Z,0.00
2024-04-14T04:28:35.179Z,0.00
2024-04-14T04:29:26.067Z,0.00
2024-04-14T04:30:16.932Z,0.00
2024-04-14T04:31:07.829Z,0.00
2024-04-14T04:31:58.732Z,5.62
2024-04-14T04:32:49.699Z,5.62
2024-04-14T04:33:41.061Z,5.62
2024-04-14T04:34:31.658Z,5.62
2024-04-14T04:35:22.498Z,5.62
2024-04-14T04:36:13.443Z,5.62
2024-04-14T04:37:04.341Z,5.62
2024-04-14T04:37:55.359Z,5.62
2024-04-14T04:38:46.385Z,5.62
2024-04-14T04:39:37.436Z,5.62
2024-04-14T04:40:28.281Z,5.62
2024-04-14T04:41:19.188Z,5.62
2024-04-14T04:42:10.089Z,5.62
2024-04-14T04:43:01.019Z,5.62
2024-04-14T04:43:51.906Z,5.62
2024-04-14T04:44:42.808Z,5.62
2024-04-14T04:45:33.754Z,5.62
2024-04-14T04:46:24.664Z,5.62
2024-04-14T04:47:15.583Z,5.62
2024-04-14T04:48:06.597Z,11.25
2024-04-14T04:48:57.668Z,11.25
2024-04-14T04:49:48.113Z,11.25
2024-04-14T04:50:39.030Z,11.25
2024-04-14T04:51:29.966Z,11.25
2024-04-14T04:52:20.871Z,11.25
2024-04-14T04:53:11.798Z,11.25
2024-04-14T04:54:02.703Z,11.25
2024-04-14T04:54:53.643Z,11.25
2024-04-14T04:55:44.549Z,11.25
2024-04-14T04:56:35.479Z,11.25
2024-04-14T04:57:26.430Z,11.25
2024-04-14T04:58:17.358Z,11.25
2024-04-14T04:59:08.265Z,11.25
2024-04-14T04:59:59.196Z,11.25
2024-04-14T05:00:50.176Z,11.25
2024-04-14T05:01:41.224Z,11.25
2024-04-14T05:02:32.232Z,11.25
2024-04-14T05:03:23.133Z,11.25
2024-04-14T05:04:14.032Z,11.25
2024-04-14T05:05:04.956Z,16.88
2024-04-14T05:05:55.878Z,16.88
2024-04-14T05:06:46.802Z,16.88
2024-04-14T05:07:37.712Z,16.88
2024-04-14T05:08:28.628Z,16.88
2024-04-14T05:09:19.551Z,16.88
2024-04-14T05:10:10.539Z,16.88
2024-04-14T05:11:01.558Z,16.88
2024-04-14T05:11:52.533Z,16.88
2024-04-14T05:12:43.488Z,16.88
2024-04-14T05:13:34.395Z,16.88
2024-04-14T05:14:25.315Z,16.88
2024-04-14T05:15:16.237Z,16.88
2024-04-14T05:16:07.168Z,16.88
2024-04-14T05:16:58.062Z,16.88
2024-04-14T05:17:49.060Z,16.88
2024-04-14T05:18:40.095Z,16.88
2024-04-14T05:19:31.093Z,16.88
2024-04-14T05:20:22.011Z,22.50
2024-04-14T05:21:12.950Z,22.50
2024-04-14T05:22:03.890Z,22.50
2024-04-14T05:22:54.765Z,22.50
2024-04-14T05:23:45.684Z,22.50
2024-04-14T05:24:36.643Z,22.50
2024-04-14T05:25:27.514Z,22.50
2024-04-14T05:26:18.437Z,22.50
2024-04-14T05:27:09.350Z,22.50
2024-04-14T05:28:00.299Z,22.50
2024-04-14T05:28:51.196Z,22.50
2024-04-14T05:29:42.117Z,28.12
2024-04-14T05:30:33.061Z,28.12
2024-04-14T05:31:23.958Z,28.12
2024-04-14T05:32:14.984Z,28.12
2024-04-14T05:33:05.990Z,28.12
2024-04-14T05:33:56.946Z,28.12
2024-04-14T05:34:47.819Z,28.12
2024-04-14T05:35:38.736Z,28.12
2024-04-14T05:36:29.737Z,28.12
2024-04-14T05:37:20.631Z,28.12
2024-04-14T05:38:11.556Z,28.12
2024-04-14T05:39:02.473Z,28.12
2024-04-14T05:39:53.399Z,28.12
2024-04-14T05:40:44.313Z,28.12
2024-04-14T05:41:35.235Z,28.12
2024-04-14T05:42:26.185Z,28.12
2024-04-14T05:43:17.107Z,28.12
2024-04-14T05:44:07.781Z,28.12
2024-04-14T05:44:58.689Z,33.75
2024-04-14T05:45:49.629Z,33.75
2024-04-14T05:46:40.539Z,33.75
2024-04-14T05:47:31.443Z,33.75
2024-04-14T05:48:22.407Z,33.75
2024-04-14T05:49:18.729Z,33.75
2024-04-14T05:50:05.334Z,33.75
2024-04-14T05:50:55.043Z,33.75
2024-04-14T05:51:45.979Z,33.75
2024-04-14T05:52:36.874Z,28.12
2024-04-14T05:53:27.788Z,28.12
2024-04-14T05:54:18.699Z,28.12
2024-04-14T05:55:09.619Z,28.12
2024-04-14T05:56:00.576Z,28.12
2024-04-14T05:56:51.495Z,28.12
2024-04-14T05:57:42.438Z,28.12
2024-04-14T05:58:33.304Z,28.12
2024-04-14T05:59:24.221Z,28.12
2024-04-14T06:00:15.636Z,28.12
2024-04-14T06:01:06.064Z,28.12
2024-04-14T06:01:56.972Z,28.12
2024-04-14T06:02:47.904Z,28.12
2024-04-14T06:03:39.039Z,28.12
2024-04-14T06:04:30.095Z,28.12
2024-04-14T06:05:21.086Z,33.75
2024-04-14T06:06:12.004Z,33.75
2024-04-14T06:07:02.928Z,33.75
2024-04-14T06:07:53.838Z,33.75
2024-04-14T06:08:44.759Z,16.88
2024-04-14T06:09:35.712Z,33.75
2024-04-14T06:10:26.607Z,33.75
2024-04-14T06:11:17.605Z,33.75
2024-04-14T06:12:08.488Z,33.75
2024-04-14T06:12:59.522Z,28.12
2024-04-14T06:13:50.484Z,33.75
2024-04-14T06:14:41.480Z,33.75
2024-04-14T06:15:32.495Z,33.75
2024-04-14T06:16:23.565Z,39.38
2024-04-14T06:17:14.497Z,39.38
2024-04-14T06:18:05.537Z,33.75
2024-04-14T06:18:56.435Z,39.38
2024-04-14T06:19:47.351Z,39.38
2024-04-14T06:20:38.274Z,39.38
2024-04-14T06:21:29.264Z,39.38
2024-04-14T06:22:20.166Z,39.38
2024-04-14T06:23:11.127Z,39.38
2024-04-14T06:24:02.041Z,45.00
2024-04-14T06:24:53.051Z,45.00
2024-04-14T06:25:43.946Z,45.00
2024-04-14T06:26:34.905Z,45.00
2024-04-14T06:27:25.885Z,45.00
2024-04-14T06:28:16.793Z,39.38
2024-04-14T06:29:07.720Z,39.38
2024-04-14T06:29:58.698Z,39.38
2024-04-14T06:30:49.739Z,45.00
2024-04-14T06:31:40.692Z,28.12
2024-04-14T06:32:31.795Z,28.12
2024-04-14T06:33:22.861Z,28.12
2024-04-14T06:34:13.832Z,28.12
2024-04-14T06:35:04.789Z,28.12
2024-04-14T06:35:55.681Z,33.75
2024-04-14T06:36:46.700Z,45.00
2024-04-14T06:37:37.578Z,45.00
2024-04-14T06:38:28.551Z,45.00
2024-04-14T06:39:19.460Z,50.62
2024-04-14T06:40:10.480Z,45.00
2024-04-14T06:41:01.364Z,45.00
2024-04-14T06:41:52.322Z,45.00
2024-04-14T06:42:43.255Z,45.00
2024-04-14T06:43:34.217Z,45.00
2024-04-14T06:44:25.116Z,45.00
2024-04-14T06:45:16.104Z,50.62
2024-04-14T06:46:07.092Z,50.62
2024-04-14T06:46:58.124Z,50.62
2024-04-14T06:47:49.040Z,50.62
2024-04-14T06:48:40.034Z,50.62
2024-04-14T06:49:30.968Z,45.00
2024-04-14T06:50:21.978Z,11.25
2024-04-14T06:51:12.910Z,45.00
2024-04-14T06:52:03.937Z,45.00
2024-04-14T06:52:54.832Z,45.00
2024-04-14T06:53:45.854Z,45.00
2024-04-14T06:54:36.855Z,45.00
2024-04-14T06:55:27.851Z,39.38
2024-04-14T06:56:18.755Z,45.00
2024-04-14T06:57:09.738Z,50.62
2024-04-14T06:58:00.791Z,50.62
2024-04-14T06:58:51.833Z,50.62
2024-04-14T06:59:42.751Z,50.62
2024-04-14T07:00:33.847Z,50.62
2024-04-14T07:01:24.855Z,56.25
2024-04-14T07:02:15.831Z,56.25
2024-04-14T07:03:06.751Z,56.25
2024-04-14T07:03:57.808Z,50.62
2024-04-14T07:04:48.843Z,50.62
2024-04-14T07:05:39.800Z,56.25
2024-04-14T07:06:30.772Z,61.88
2024-04-14T07:07:21.701Z,56.25
2024-04-14T07:08:12.632Z,56.25
2024-04-14T07:09:03.576Z,56.25
2024-04-14T07:09:54.544Z,61.88
2024-04-14T07:10:45.482Z,56.25
2024-04-14T07:11:36.399Z,61.88
2024-04-14T07:12:27.426Z,56.25
2024-04-14T07:13:18.303Z,56.25
2024-04-14T07:14:09.244Z,56.25
2024-04-14T07:15:00.199Z,61.88
2024-04-14T07:15:51.184Z,61.88
2024-04-14T07:16:42.055Z,56.25
2024-04-14T07:17:33.184Z,22.50
2024-04-14T07:18:24.227Z,50.62
2024-04-14T07:19:15.285Z,56.25
2024-04-14T07:20:06.158Z,39.38
2024-04-14T07:20:57.115Z,50.62
2024-04-14T07:21:48.036Z,50.62
2024-04-14T07:22:39.035Z,67.50
2024-04-14T07:23:29.965Z,73.12
2024-04-14T07:24:20.990Z,73.12
2024-04-14T07:25:11.932Z,67.50
2024-04-14T07:26:05.039Z,73.12
2024-04-14T07:26:53.731Z,61.88
2024-04-14T07:27:44.710Z,61.88
2024-04-14T07:28:35.617Z,61.88
2024-04-14T07:29:26.571Z,73.12
2024-04-14T07:30:17.491Z,73.12
2024-04-14T07:31:08.507Z,67.50
2024-04-14T07:31:59.414Z,56.25
2024-04-14T07:32:50.496Z,50.62
2024-04-14T07:33:41.455Z,73.12
2024-04-14T07:34:32.427Z,73.12
2024-04-14T07:35:23.355Z,67.50
2024-04-14T07:36:14.335Z,78.75
2024-04-14T07:37:05.294Z,78.75
2024-04-14T07:37:56.443Z,78.75
2024-04-14T07:38:47.374Z,78.75
2024-04-14T07:39:38.440Z,78.75
2024-04-14T07:40:29.335Z,78.75
2024-04-14T07:41:20.301Z,84.38
2024-04-14T07:42:11.250Z,84.38
2024-04-14T07:43:02.371Z,84.38
2024-04-14T07:43:53.444Z,73.12
2024-04-14T07:44:44.484Z,73.12
2024-04-14T07:45:35.518Z,78.75
2024-04-14T07:46:26.477Z,78.75
2024-04-14T07:47:17.418Z,78.75
2024-04-14T07:48:08.434Z,78.75
2024-04-14T07:48:59.450Z,84.38
2024-04-14T07:49:50.375Z,73.12
2024-04-14T07:50:41.290Z,78.75
2024-04-14T07:51:32.290Z,78.75
2024-04-14T07:52:23.181Z,84.38
2024-04-14T07:53:14.140Z,78.75
2024-04-14T07:54:05.086Z,84.38
2024-04-14T07:54:56.061Z,90.00
2024-04-14T07:55:46.980Z,90.00
2024-04-14T07:56:37.915Z,78.75
2024-04-14T07:57:28.955Z,67.50
2024-04-14T07:58:19.912Z,50.62
2024-04-14T07:59:10.832Z,56.25
2024-04-14T08:00:01.800Z,61.88
2024-04-14T08:00:52.798Z,67.50
2024-04-14T08:01:43.825Z,67.50
2024-04-14T08:02:34.744Z,84.38
2024-04-14T08:03:25.705Z,78.75
2024-04-14T08:04:16.894Z,84.38
2024-04-14T08:05:07.333Z,84.38
2024-04-14T08:05:58.251Z,90.00
2024-04-14T08:06:49.274Z,84.38
2024-04-14T08:07:40.177Z,67.50
2024-04-14T08:08:31.138Z,61.88
2024-04-14T08:09:22.059Z,73.12
2024-04-14T08:10:13.086Z,90.00
2024-04-14T08:11:04.033Z,90.00
2024-04-14T08:11:55.022Z,78.75
2024-04-14T08:12:46.036Z,101.25
2024-04-14T08:13:37.014Z,95.62
2024-04-14T08:14:27.940Z,78.75
2024-04-14T08:15:18.915Z,78.75
2024-04-14T08:16:09.948Z,90.00
2024-04-14T08:17:00.957Z,106.88
2024-04-14T08:17:51.904Z,95.62
2024-04-14T08:18:42.969Z,118.12
2024-04-14T08:19:33.920Z,73.12
2024-04-14T08:20:24.881Z,67.50
2024-04-14T08:21:15.796Z,78.75
2024-04-14T08:22:06.793Z,78.75
2024-04-14T08:22:57.698Z,78.75
2024-04-14T08:23:48.661Z,67.50
2024-04-14T08:24:39.616Z,50.62
2024-04-14T08:25:30.543Z,50.62
2024-04-14T08:26:21.455Z,61.88
2024-04-14T08:27:12.443Z,84.38
2024-04-14T08:28:03.415Z,50.62
2024-04-14T08:28:54.427Z,73.12
2024-04-14T08:29:45.371Z,101.25
2024-04-14T08:30:36.349Z,90.00
2024-04-14T08:31:27.239Z,90.00
2024-04-14T08:32:18.203Z,106.88
2024-04-14T08:33:09.211Z,106.88
2024-04-14T08:34:00.460Z,101.25
2024-04-14T08:34:51.156Z,73.12
2024-04-14T08:35:42.105Z,56.25
2024-04-14T08:36:33.054Z,73.12
2024-04-14T08:37:24.081Z,78.75
2024-04-14T08:38:15.033Z,90.00
2024-04-14T08:39:06.071Z,95.62
2024-04-14T08:39:57.037Z,112.50
2024-04-14T08:40:48.059Z,90.00
2024-04-14T08:41:38.993Z,106.88
2024-04-14T08:42:29.977Z,112.50
2024-04-14T08:43:20.890Z,112.50
2024-04-14T08:44:11.947Z,112.50
2024-04-14T08:45:02.920Z,90.00
2024-04-14T08:45:54.019Z,95.62
2024-04-14T08:46:45.090Z,90.00
2024-04-14T08:47:36.181Z,95.62
2024-04-14T08:48:27.142Z,112.50
2024-04-14T08:49:18.182Z,129.38
2024-04-14T08:50:09.106Z,146.25
2024-04-14T08:51:00.153Z,140.62
2024-04-14T08:51:51.070Z,106.88
2024-04-14T08:52:42.038Z,101.25
2024-04-14T08:53:32.958Z,78.75
2024-04-14T08:54:24.015Z,90.00
2024-04-14T08:55:14.956Z,118.12
2024-04-14T08:56:05.988Z,123.75
2024-04-14T08:56:56.909Z,95.62
2024-04-14T08:57:48.018Z,39.38
2024-04-14T08:58:38.896Z,135.00
2024-04-14T08:59:30.245Z,151.88
2024-04-14T09:00:20.619Z,151.88
2024-04-14T09:01:11.696Z,168.75
2024-04-14T09:02:02.823Z,185.62
2024-04-14T09:02:53.784Z,191.25
2024-04-14T09:03:44.746Z,196.88
2024-04-14T09:04:35.787Z,202.50
2024-04-14T09:05:26.709Z,219.38
2024-04-14T09:06:17.855Z,123.75
2024-04-14T09:07:08.865Z,219.38
2024-04-14T09:07:59.863Z,219.38
2024-04-14T09:08:50.812Z,208.12
2024-04-14T09:09:41.828Z,225.00
2024-04-14T09:10:32.757Z,230.62
2024-04-14T09:11:23.724Z,225.00
2024-04-14T09:12:14.694Z,219.38
2024-04-14T09:13:08.918Z,213.75
2024-04-14T09:13:56.569Z,219.38
2024-04-14T09:14:47.611Z,230.62
2024-04-14T09:15:38.603Z,95.62
2024-04-14T09:16:29.792Z,95.62
2024-04-14T09:17:20.243Z,208.12
2024-04-14T09:18:11.195Z,78.75
2024-04-14T09:19:02.284Z,219.38
2024-04-14T09:19:53.280Z,219.38
2024-04-14T09:20:44.202Z,208.12
2024-04-14T09:21:35.191Z,168.75
2024-04-14T09:22:26.124Z,241.88
2024-04-14T09:23:17.073Z,135.00
2024-04-14T09:24:08.027Z,123.75
2024-04-14T09:24:59.077Z,225.00
2024-04-14T09:25:49.978Z,185.62
2024-04-14T09:26:41.034Z,67.50
2024-04-14T09:27:32.009Z,185.62
2024-04-14T09:28:22.939Z,208.12
2024-04-14T09:29:13.890Z,247.50
2024-04-14T09:30:04.900Z,163.12
2024-04-14T09:30:55.865Z,95.62
2024-04-14T09:31:46.794Z,253.12
2024-04-14T09:32:37.844Z,247.50
2024-04-14T09:33:28.892Z,241.88
2024-04-14T09:34:19.867Z,253.12
2024-04-14T09:35:10.884Z,208.12
2024-04-14T09:36:01.830Z,112.50
2024-04-14T09:36:52.800Z,106.88
2024-04-14T09:37:43.712Z,241.88
2024-04-14T09:38:34.877Z,264.38
2024-04-14T09:39:25.767Z,247.50
2024-04-14T09:40:16.758Z,191.25
2024-04-14T09:41:07.702Z,247.50
2024-04-14T09:41:58.646Z,247.50
2024-04-14T09:42:49.631Z,123.75
2024-04-14T09:43:40.636Z,253.12
2024-04-14T09:44:31.569Z,241.88
2024-04-14T09:45:22.535Z,241.88
2024-04-14T09:46:13.496Z,185.62
2024-04-14T09:47:04.566Z,253.12
2024-04-14T09:47:55.505Z,90.00
2024-04-14T09:48:46.527Z,146.25
2024-04-14T09:49:37.458Z,112.50
2024-04-14T09:50:28.399Z,157.50
2024-04-14T09:51:19.346Z,213.75
2024-04-14T09:52:10.439Z,213.75
2024-04-14T09:53:01.365Z,202.50
2024-04-14T09:53:52.378Z,185.62
2024-04-14T09:54:43.324Z,61.88
2024-04-14T09:55:36.138Z,180.00
2024-04-14T09:56:25.457Z,191.25
2024-04-14T09:57:16.460Z,208.12
2024-04-14T09:58:07.464Z,213.75
2024-04-14T09:58:58.473Z,202.50
2024-04-14T09:59:49.393Z,202.50
2024-04-14T10:00:40.516Z,213.75
2024-04-14T10:01:31.582Z,230.62
2024-04-14T10:02:22.930Z,146.25
2024-04-14T10:03:13.301Z,112.50
2024-04-14T10:04:04.584Z,225.00
2024-04-14T10:04:55.088Z,213.75
2024-04-14T10:05:46.114Z,208.12
2024-04-14T10:06:37.098Z,123.75
2024-04-14T10:07:28.106Z,202.50
2024-04-14T10:08:20.095Z,73.12
2024-04-14T10:09:09.890Z,174.38
2024-04-14T10:10:00.911Z,73.12
2024-04-14T10:10:51.913Z,196.88
2024-04-14T10:11:42.812Z,84.38
2024-04-14T10:12:33.801Z,191.25
2024-04-14T10:13:24.729Z,213.75
2024-04-14T10:14:15.761Z,208.12
2024-04-14T10:15:08.974Z,196.88
2024-04-14T10:15:57.966Z,196.88
2024-04-14T10:16:49.057Z,202.50
2024-04-14T10:17:40.110Z,196.88
2024-04-14T10:18:31.066Z,196.88
2024-04-14T10:19:22.050Z,196.88
2024-04-14T10:20:12.993Z,84.38
2024-04-14T10:21:03.959Z,73.12
2024-04-14T10:21:54.940Z,78.75
2024-04-14T10:22:45.929Z,191.25
2024-04-14T10:23:36.873Z,84.38
2024-04-14T10:24:27.820Z,78.75
2024-04-14T10:25:18.763Z,168.75
2024-04-14T10:26:09.707Z,78.75
2024-04-14T10:27:00.654Z,84.38
2024-04-14T10:27:51.678Z,112.50
2024-04-14T10:28:42.799Z,73.12
2024-04-14T10:29:33.801Z,67.50
2024-04-14T10:30:24.725Z,73.12
2024-04-14T10:31:15.682Z,174.38
2024-04-14T10:32:06.625Z,180.00
2024-04-14T10:32:57.753Z,185.62
2024-04-14T10:33:48.705Z,185.62
2024-04-14T10:34:39.943Z,84.38
2024-04-14T10:35:30.865Z,180.00
2024-04-14T10:36:21.865Z,191.25
2024-04-14T10:37:12.840Z,196.88
2024-04-14T10:38:03.859Z,140.62
2024-04-14T10:38:54.804Z,196.88
2024-04-14T10:39:45.856Z,106.88
2024-04-14T10:40:36.783Z,101.25
2024-04-14T10:41:27.745Z,84.38
2024-04-14T10:42:18.702Z,101.25
2024-04-14T10:43:09.660Z,78.75
2024-04-14T10:44:00.577Z,78.75
2024-04-14T10:44:51.523Z,73.12
2024-04-14T10:45:42.464Z,73.12
2024-04-14T10:46:33.468Z,73.12
2024-04-14T10:47:24.455Z,67.50
2024-04-14T10:48:15.396Z,61.88
2024-04-14T10:49:06.393Z,67.50
2024-04-14T10:49:57.390Z,61.88
2024-04-14T10:50:48.319Z,67.50
2024-04-14T10:51:39.314Z,61.88
2024-04-14T10:52:30.271Z,90.00
2024-04-14T10:53:21.292Z,180.00
2024-04-14T10:54:12.226Z,185.62
2024-04-14T10:55:03.385Z,180.00
2024-04-14T10:55:54.348Z,168.75
2024-04-14T10:56:48.380Z,61.88
2024-04-14T10:57:36.113Z,67.50
2024-04-14T10:58:27.041Z,174.38
2024-04-14T10:59:17.989Z,191.25
2024-04-14T11:00:09.034Z,191.25
2024-04-14T11:01:00.030Z,191.25
2024-04-14T11:01:51.076Z,196.88